Terminal Aerodrome Forecast
Issued by NWS

Home | Current Version | Previous Version | Text Only | Print | Product List | Glossary On
Versions: 1 2 3 4 5 6 7 8 9 10 11 12 13 14 15
000
FTUS43 KFGF 022328
TAFTVF
TAF
KTVF 022328Z 0300/0324 32014G20KT P6SM SCT050
     FM030100 31007KT P6SM SKC
     FM031600 32013G19KT P6SM FEW050
     FM031800 32014G21KT P6SM FEW250
      AMD LTD TO CLD VIS AND WIND=

USA.gov is the U.S. government's official web portal to all federal, state and local government web resources and services.